Time;durP1;ratioP1;P1;durP2;ratioP2;P2;SDS_P1;SDS_P2;PMS_P1;PMS_P2;Temp;Humidity;BMP_temperature;BMP_pressure;BME280_temperature;BME280_humidity;BME280_pressure;Samples;Min_cycle;Max_cycle;Signal;HPM_P1;HPM_P2
2021/03/25 00:01:41;;;;;;;39.10;29.43;;;;;;;;;;5107858;28;20257;-43
2021/03/25 00:04:06;;;;;;;39.30;29.40;;;;;;;;;;5097212;28;21374;-43
2021/03/25 00:06:32;;;;;;;45.50;32.38;;;;;;;;;;5104075;28;20595;-42
2021/03/25 00:08:57;;;;;;;37.67;29.77;;;;;;;;;;5098140;28;20174;-43
2021/03/25 00:11:23;;;;;;;43.55;31.27;;;;;;;;;;5102745;28;20782;-43
2021/03/25 00:13:48;;;;;;;40.20;30.00;;;;;;;;;;5104434;28;20286;-43
2021/03/25 00:16:14;;;;;;;41.07;30.50;;;;;;;;;;5103116;28;20257;-43
2021/03/25 00:18:39;;;;;;;39.00;29.40;;;;;;;;;;5096996;28;20512;-43
2021/03/25 00:21:05;;;;;;;43.20;31.20;;;;;;;;;;5107678;28;20173;-43
2021/03/25 00:23:31;;;;;;;40.77;29.20;;;;;;;;;;5108095;28;20533;-43
2021/03/25 00:25:57;;;;;;;41.17;30.17;;;;;;;;;;5107980;28;20611;-43
2021/03/25 00:28:22;;;;;;;37.37;29.80;;;;;;;;;;5107917;28;20208;-43
2021/03/25 00:30:47;;;;;;;38.63;29.47;;;;;;;;;;5107517;28;20178;-42
2021/03/25 00:33:15;;;;;;;37.10;29.00;;;;;;;;;;5108336;27;20570;-42
2021/03/25 00:35:41;;;;;;;41.00;29.17;;;;;;;;;;5100766;28;20224;-43
2021/03/25 00:38:06;;;;;;;40.63;29.50;;;;;;;;;;5106567;28;20675;-43
2021/03/25 00:40:31;;;;;;;40.97;30.00;;;;;;;;;;5107105;28;20201;-43
2021/03/25 00:42:57;;;;;;;40.00;31.07;;;;;;;;;;5107170;28;20174;-43
2021/03/25 00:45:27;;;;;;;42.87;29.50;;;;;;;;;;5107405;28;20212;-43
2021/03/25 00:47:52;;;;;;;42.47;30.03;;;;;;;;;;5105775;28;20174;-43
2021/03/25 00:50:24;;;;;;;42.03;30.40;;;;;;;;;;5106842;28;20606;-44
2021/03/25 00:52:49;;;;;;;39.60;29.97;;;;;;;;;;5107114;28;20202;-43
2021/03/25 00:55:14;;;;;;;38.97;29.17;;;;;;;;;;5104797;28;21040;-43
2021/03/25 00:57:40;;;;;;;38.80;29.10;;;;;;;;;;5106171;28;20173;-42
2021/03/25 01:00:05;;;;;;;39.10;28.67;;;;;;;;;;5107007;28;20170;-42
2021/03/25 01:02:30;;;;;;;44.43;30.30;;;;;;;;;;5106240;28;20185;-42
2021/03/25 01:04:55;;;;;;;39.80;30.10;;;;;;;;;;5104341;28;20174;-43
2021/03/25 01:07:25;;;;;;;42.60;30.83;;;;;;;;;;5107608;28;20253;-43
2021/03/25 01:09:50;;;;;;;42.83;29.67;;;;;;;;;;5105273;28;20183;-42
2021/03/25 01:12:15;;;;;;;39.77;30.53;;;;;;;;;;5106253;28;20692;-43
2021/03/25 01:14:40;;;;;;;38.75;30.00;;;;;;;;;;5107103;28;20190;-43
2021/03/25 01:17:05;;;;;;;44.35;29.70;;;;;;;;;;5107341;28;20174;-42
2021/03/25 01:19:31;;;;;;;40.07;29.53;;;;;;;;;;5105599;28;20165;-43
2021/03/25 01:21:57;;;;;;;36.90;28.20;;;;;;;;;;5106772;28;20621;-41
2021/03/25 01:24:23;;;;;;;37.10;28.63;;;;;;;;;;5104823;28;20261;-42
2021/03/25 01:26:48;;;;;;;37.97;29.80;;;;;;;;;;5106909;28;20223;-43
2021/03/25 01:29:13;;;;;;;40.63;29.47;;;;;;;;;;5105528;28;21227;-43
2021/03/25 01:31:39;;;;;;;39.00;29.40;;;;;;;;;;5106069;28;20180;-43
2021/03/25 01:34:05;;;;;;;41.60;30.03;;;;;;;;;;5105602;28;20283;-43
2021/03/25 01:36:30;;;;;;;39.20;30.23;;;;;;;;;;5104235;28;20655;-43
2021/03/25 01:38:55;;;;;;;40.73;29.13;;;;;;;;;;5097630;28;20592;-43
2021/03/25 01:41:21;;;;;;;40.70;28.97;;;;;;;;;;5102910;28;20198;-43
2021/03/25 01:43:47;;;;;;;39.20;29.40;;;;;;;;;;5105046;28;20174;-42
2021/03/25 01:46:21;;;;;;;40.20;29.43;;;;;;;;;;5105378;28;20253;-42
2021/03/25 01:48:47;;;;;;;41.73;30.97;;;;;;;;;;5107122;28;20201;-42
2021/03/25 01:51:16;;;;;;;40.57;30.37;;;;;;;;;;5104791;28;20632;-43
2021/03/25 01:54:07;;;;;;;42.37;28.50;;;;;;;;;;5106701;28;21271;-42
2021/03/25 01:56:44;;;;;;;42.90;30.60;;;;;;;;;;5102759;28;20628;-43
2021/03/25 01:59:28;;;;;;;38.70;29.20;;;;;;;;;;5104695;28;21024;-43
2021/03/25 02:02:12;;;;;;;38.03;28.90;;;;;;;;;;5106860;28;20614;-43
2021/03/25 02:04:54;;;;;;;47.50;30.07;;;;;;;;;;5102064;28;20638;-44
2021/03/25 02:07:25;;;;;;;35.87;29.27;;;;;;;;;;5105236;28;20683;-43
2021/03/25 02:09:56;;;;;;;39.73;29.50;;;;;;;;;;5108859;28;20603;-44
2021/03/25 02:12:31;;;;;;;40.87;29.70;;;;;;;;;;5109184;28;21185;-44
2021/03/25 02:15:02;;;;;;;42.50;29.63;;;;;;;;;;5102338;28;20606;-42
2021/03/25 02:17:32;;;;;;;39.53;28.80;;;;;;;;;;5105773;28;20715;-42
2021/03/25 02:20:19;;;;;;;38.10;28.90;;;;;;;;;;5104886;28;21165;-43
2021/03/25 02:22:50;;;;;;;42.10;30.43;;;;;;;;;;5110683;28;20949;-43
2021/03/25 02:25:17;;;;;;;43.50;33.03;;;;;;;;;;5105383;28;20701;-42
2021/03/25 02:28:03;;;;;;;45.37;31.90;;;;;;;;;;5108207;28;20606;-41
2021/03/25 02:30:47;;;;;;;42.50;30.00;;;;;;;;;;5082177;28;20631;-43
2021/03/25 02:33:17;;;;;;;42.77;30.77;;;;;;;;;;5109384;28;20691;-42
2021/03/25 02:35:46;;;;;;;38.57;28.80;;;;;;;;;;5109236;27;20636;-43
2021/03/25 02:38:17;;;;;;;41.13;30.93;;;;;;;;;;5109171;28;20694;-43
2021/03/25 02:40:45;;;;;;;42.20;29.40;;;;;;;;;;5103569;28;20619;-44
2021/03/25 02:43:13;;;;;;;40.93;29.13;;;;;;;;;;5110967;28;20606;-42
2021/03/25 02:45:40;;;;;;;43.73;31.40;;;;;;;;;;5109484;28;20596;-42
2021/03/25 02:48:11;;;;;;;38.50;28.77;;;;;;;;;;5107992;28;20709;-42
2021/03/25 02:50:42;;;;;;;39.10;29.40;;;;;;;;;;5104708;28;20619;-42
2021/03/25 02:53:13;;;;;;;38.40;29.37;;;;;;;;;;5108392;28;20646;-43
2021/03/25 02:55:38;;;;;;;40.23;28.27;;;;;;;;;;5109843;28;20670;-43
2021/03/25 02:58:09;;;;;;;42.13;30.27;;;;;;;;;;5106006;27;21138;-43
2021/03/25 03:00:39;;;;;;;42.73;29.60;;;;;;;;;;5109409;28;20173;-43
2021/03/25 03:03:06;;;;;;;44.20;30.67;;;;;;;;;;5100085;28;21146;-42
2021/03/25 03:05:33;;;;;;;41.83;30.10;;;;;;;;;;5097452;28;20603;-43
2021/03/25 03:08:04;;;;;;;41.67;29.80;;;;;;;;;;5101484;28;20611;-43
2021/03/25 03:10:35;;;;;;;40.70;29.80;;;;;;;;;;5100964;28;20630;-43
2021/03/25 03:13:02;;;;;;;45.43;31.10;;;;;;;;;;5106384;28;21002;-43
2021/03/25 03:15:41;;;;;;;43.50;30.60;;;;;;;;;;5103820;28;20596;-43
2021/03/25 03:18:12;;;;;;;42.50;31.00;;;;;;;;;;5105452;28;20592;-43
2021/03/25 03:20:47;;;;;;;40.30;29.60;;;;;;;;;;5100836;28;20602;-43
2021/03/25 03:23:12;;;;;;;41.60;29.00;;;;;;;;;;5106200;28;20745;-43
2021/03/25 03:25:38;;;;;;;43.67;31.37;;;;;;;;;;5100852;28;20696;-43
2021/03/25 03:28:15;;;;;;;44.20;30.63;;;;;;;;;;5101777;28;20520;-42
2021/03/25 03:30:44;;;;;;;42.87;31.07;;;;;;;;;;5109798;28;20169;-43
2021/03/25 03:33:14;;;;;;;53.03;34.50;;;;;;;;;;5106337;28;21341;-43
2021/03/25 03:35:49;;;;;;;41.33;31.10;;;;;;;;;;5109247;28;20589;-43
2021/03/25 03:38:17;;;;;;;48.40;32.90;;;;;;;;;;5110408;28;20601;-43
2021/03/25 03:40:43;;;;;;;44.33;30.47;;;;;;;;;;5109390;28;20710;-43
2021/03/25 03:43:11;;;;;;;42.80;30.70;;;;;;;;;;5101617;28;20596;-44
2021/03/25 03:45:37;;;;;;;49.70;34.03;;;;;;;;;;5108824;28;20600;-43
2021/03/25 03:48:05;;;;;;;43.93;32.23;;;;;;;;;;5108062;28;20594;-43
2021/03/25 03:50:31;;;;;;;44.67;31.70;;;;;;;;;;5108777;27;20698;-43
2021/03/25 03:52:57;;;;;;;48.27;32.23;;;;;;;;;;5107711;27;20657;-43
2021/03/25 03:55:23;;;;;;;46.40;32.87;;;;;;;;;;5108784;28;20635;-43
2021/03/25 03:58:02;;;;;;;46.83;33.37;;;;;;;;;;5108748;28;20351;-43
2021/03/25 04:00:29;;;;;;;46.27;32.00;;;;;;;;;;5108348;28;20175;-43
2021/03/25 04:03:01;;;;;;;43.43;33.13;;;;;;;;;;5107757;28;20751;-43
2021/03/25 04:05:28;;;;;;;50.70;35.43;;;;;;;;;;5101904;28;20598;-43
2021/03/25 04:08:06;;;;;;;47.50;33.97;;;;;;;;;;5104174;28;20591;-43
2021/03/25 04:10:35;;;;;;;45.57;33.27;;;;;;;;;;5105630;28;21018;-43
2021/03/25 04:13:01;;;;;;;47.03;34.57;;;;;;;;;;5106567;28;20695;-43
2021/03/25 04:15:31;;;;;;;49.90;35.27;;;;;;;;;;5107574;28;20588;-43
2021/03/25 04:18:00;;;;;;;47.80;33.10;;;;;;;;;;5108180;28;20577;-43
2021/03/25 04:20:26;;;;;;;42.70;32.93;;;;;;;;;;5107058;28;20595;-43
2021/03/25 04:22:54;;;;;;;46.83;32.10;;;;;;;;;;5105800;28;20598;-41
2021/03/25 04:25:26;;;;;;;44.03;31.90;;;;;;;;;;5083012;28;20590;-43
2021/03/25 04:27:58;;;;;;;44.87;31.60;;;;;;;;;;5105543;28;20645;-43
2021/03/25 04:30:25;;;;;;;47.73;32.80;;;;;;;;;;5107556;28;20682;-44
2021/03/25 04:32:51;;;;;;;47.20;33.30;;;;;;;;;;5105441;28;21003;-43
2021/03/25 04:35:17;;;;;;;45.27;31.13;;;;;;;;;;5098555;28;20591;-43
2021/03/25 04:37:42;;;;;;;49.07;32.13;;;;;;;;;;5098935;28;20208;-43
2021/03/25 04:40:17;;;;;;;46.97;32.30;;;;;;;;;;5100659;28;20639;-43
2021/03/25 04:42:43;;;;;;;48.03;33.10;;;;;;;;;;5099110;28;20207;-42
2021/03/25 04:45:26;;;;;;;47.30;33.90;;;;;;;;;;5102539;28;20593;-43
2021/03/25 04:47:53;;;;;;;48.67;34.37;;;;;;;;;;5105502;28;20599;-42
2021/03/25 04:50:21;;;;;;;49.00;33.53;;;;;;;;;;5105215;28;20588;-43
2021/03/25 04:52:47;;;;;;;45.00;32.10;;;;;;;;;;5103368;28;20745;-43
2021/03/25 04:55:17;;;;;;;48.90;34.77;;;;;;;;;;5102880;28;20658;-43
2021/03/25 04:57:44;;;;;;;50.87;34.30;;;;;;;;;;5105098;28;20169;-43
2021/03/25 05:00:12;;;;;;;45.10;32.33;;;;;;;;;;5105523;28;20599;-43
2021/03/25 05:02:37;;;;;;;44.63;32.70;;;;;;;;;;5102086;28;20628;-43
2021/03/25 05:05:03;;;;;;;44.90;32.77;;;;;;;;;;5102596;28;20684;-42
2021/03/25 05:07:30;;;;;;;49.00;34.37;;;;;;;;;;5107953;28;20241;-43
2021/03/25 05:09:56;;;;;;;52.40;35.73;;;;;;;;;;5108302;28;20706;-43
2021/03/25 05:12:21;;;;;;;47.70;34.50;;;;;;;;;;5108522;28;20677;-44
2021/03/25 05:14:48;;;;;;;48.43;34.50;;;;;;;;;;5106805;28;20602;-42
2021/03/25 05:17:16;;;;;;;45.83;33.43;;;;;;;;;;5108220;28;20170;-43
2021/03/25 05:19:53;;;;;;;53.43;35.50;;;;;;;;;;5103475;28;20587;-42
2021/03/25 05:22:35;;;;;;;49.83;34.30;;;;;;;;;;5107310;28;20599;-42
2021/03/25 05:25:00;;;;;;;52.93;34.80;;;;;;;;;;5099053;28;21129;-41
2021/03/25 05:27:26;;;;;;;46.20;34.78;;;;;;;;;;5104925;28;20607;-42
2021/03/25 05:29:52;;;;;;;47.38;33.55;;;;;;;;;;5106972;28;20174;-45
2021/03/25 05:32:19;;;;;;;49.13;34.57;;;;;;;;;;5107020;28;20778;-42
2021/03/25 05:34:45;;;;;;;49.53;35.03;;;;;;;;;;5104532;28;20871;-42
2021/03/25 05:37:10;;;;;;;52.27;36.13;;;;;;;;;;5105779;28;20599;-42
2021/03/25 05:39:37;;;;;;;45.83;33.40;;;;;;;;;;5109113;28;20184;-43
2021/03/25 05:42:12;;;;;;;46.00;35.27;;;;;;;;;;5108917;28;20173;-42
2021/03/25 05:44:40;;;;;;;48.73;35.10;;;;;;;;;;5108994;28;20954;-43
2021/03/25 05:47:20;;;;;;;49.93;35.83;;;;;;;;;;5108036;28;20599;-42
2021/03/25 05:49:58;;;;;;;47.97;36.03;;;;;;;;;;5108681;28;20599;-43
2021/03/25 05:52:36;;;;;;;54.57;36.60;;;;;;;;;;5107872;28;20623;-43
2021/03/25 05:55:08;;;;;;;53.90;37.23;;;;;;;;;;5117741;27;21381;-43
2021/03/25 05:57:37;;;;;;;53.70;37.07;;;;;;;;;;5108499;27;20610;-43
2021/03/25 06:00:02;;;;;;;49.67;36.97;;;;;;;;;;5103790;28;20613;-44
2021/03/25 06:02:36;;;;;;;51.63;38.08;;;;;;;;;;5103980;28;20604;-43
2021/03/25 06:05:02;;;;;;;59.13;39.37;;;;;;;;;;5102527;28;20922;-43
2021/03/25 06:07:50;;;;;;;52.70;39.77;;;;;;;;;;5107691;28;20691;-42
2021/03/25 06:10:34;;;;;;;50.93;38.53;;;;;;;;;;5103631;28;20823;-43
2021/03/25 06:13:18;;;;;;;54.47;38.60;;;;;;;;;;5103348;28;20653;-43
2021/03/25 06:15:55;;;;;;;53.07;38.10;;;;;;;;;;5107088;28;21149;-43
2021/03/25 06:18:23;;;;;;;53.97;38.93;;;;;;;;;;5107772;27;20599;-43
2021/03/25 06:20:57;;;;;;;56.23;39.63;;;;;;;;;;5110947;28;20599;-43
2021/03/25 06:23:31;;;;;;;53.97;38.83;;;;;;;;;;5110493;27;20864;-42
2021/03/25 06:26:05;;;;;;;57.73;41.47;;;;;;;;;;5111266;27;20987;-44
2021/03/25 06:28:30;;;;;;;52.53;37.10;;;;;;;;;;5112652;27;20601;-43
2021/03/25 06:31:18;;;;;;;53.97;40.17;;;;;;;;;;5109975;28;20620;-43
2021/03/25 06:33:47;;;;;;;49.73;37.00;;;;;;;;;;5109333;28;20210;-43
2021/03/25 06:36:14;;;;;;;56.07;40.50;;;;;;;;;;5110607;27;20622;-43
2021/03/25 06:38:39;;;;;;;51.27;39.40;;;;;;;;;;5110286;28;20587;-43
2021/03/25 06:41:13;;;;;;;55.47;41.33;;;;;;;;;;5108483;28;21035;-43
2021/03/25 06:43:45;;;;;;;54.70;41.27;;;;;;;;;;5108951;28;20189;-43
2021/03/25 06:46:10;;;;;;;58.63;43.87;;;;;;;;;;5109430;28;21205;-43
2021/03/25 06:48:39;;;;;;;53.60;41.78;;;;;;;;;;5110287;28;22562;-43
2021/03/25 06:51:23;;;;;;;49.60;37.97;;;;;;;;;;5110758;28;20296;-44
2021/03/25 06:53:51;;;;;;;53.47;40.57;;;;;;;;;;5107194;27;20652;-43
2021/03/25 06:56:17;;;;;;;53.20;40.00;;;;;;;;;;5103338;28;20647;-43
2021/03/25 06:59:02;;;;;;;55.20;40.40;;;;;;;;;;5104999;28;20599;-43
2021/03/25 07:01:45;;;;;;;52.83;40.27;;;;;;;;;;5102618;28;20697;-42
2021/03/25 07:04:13;;;;;;;56.80;41.00;;;;;;;;;;5101166;28;20640;-43
2021/03/25 07:06:39;;;;;;;55.13;42.03;;;;;;;;;;5105477;28;20595;-42
2021/03/25 07:09:04;;;;;;;53.67;41.67;;;;;;;;;;5106583;28;21190;-42
2021/03/25 07:11:31;;;;;;;51.30;40.00;;;;;;;;;;5106940;28;20174;-42
2021/03/25 07:14:06;;;;;;;55.50;41.60;;;;;;;;;;5106935;28;20209;-41
2021/03/25 07:16:35;;;;;;;60.87;41.67;;;;;;;;;;5109351;27;20602;-41
2021/03/25 07:19:02;;;;;;;51.37;40.90;;;;;;;;;;5108444;27;20651;-41
2021/03/25 07:21:36;;;;;;;56.50;42.67;;;;;;;;;;5103450;28;20743;-41
2021/03/25 07:24:25;;;;;;;56.43;41.80;;;;;;;;;;5095514;28;20762;-41
2021/03/25 07:27:09;;;;;;;55.27;40.10;;;;;;;;;;5095196;28;20698;-42
2021/03/25 07:29:35;;;;;;;57.33;42.73;;;;;;;;;;5105003;28;20620;-42
2021/03/25 07:32:13;;;;;;;52.07;40.53;;;;;;;;;;5106374;28;20683;-42
2021/03/25 07:34:41;;;;;;;52.63;38.90;;;;;;;;;;5100118;28;20599;-42
2021/03/25 07:37:07;;;;;;;56.60;42.37;;;;;;;;;;5105067;28;20602;-42
2021/03/25 07:39:37;;;;;;;58.17;40.53;;;;;;;;;;5104875;28;20595;-42
2021/03/25 07:42:03;;;;;;;52.43;39.67;;;;;;;;;;5097772;28;20655;-42
2021/03/25 07:44:28;;;;;;;56.53;42.27;;;;;;;;;;5106338;28;20619;-42
2021/03/25 07:46:55;;;;;;;56.90;42.00;;;;;;;;;;5107248;27;20614;-42
2021/03/25 07:49:21;;;;;;;54.43;41.67;;;;;;;;;;5108359;27;20182;-42
2021/03/25 07:51:51;;;;;;;56.93;41.73;;;;;;;;;;5108872;27;21243;-42
2021/03/25 07:54:17;;;;;;;57.83;41.07;;;;;;;;;;5106516;27;20596;-42
2021/03/25 07:56:57;;;;;;;53.23;41.17;;;;;;;;;;5109031;27;20626;-42
2021/03/25 07:59:27;;;;;;;52.43;42.03;;;;;;;;;;5102821;27;20734;-43
2021/03/25 08:01:52;;;;;;;53.20;40.60;;;;;;;;;;5107151;27;20600;-44
2021/03/25 08:04:23;;;;;;;59.50;43.90;;;;;;;;;;5105648;28;20628;-43
2021/03/25 08:06:57;;;;;;;50.93;38.00;;;;;;;;;;5108713;28;20253;-47
2021/03/25 08:09:22;;;;;;;54.07;40.30;;;;;;;;;;5109043;28;21149;-43
2021/03/25 08:11:52;;;;;;;54.28;39.97;;;;;;;;;;5109101;28;20663;-43
2021/03/25 08:14:22;;;;;;;51.70;40.03;;;;;;;;;;5103890;28;20174;-43
2021/03/25 08:16:49;;;;;;;47.90;39.47;;;;;;;;;;5107819;28;20598;-43
2021/03/25 08:19:33;;;;;;;52.00;40.50;;;;;;;;;;5108303;28;20603;-42
2021/03/25 08:22:04;;;;;;;50.43;38.17;;;;;;;;;;5082843;28;21096;-42
2021/03/25 08:24:45;;;;;;;46.37;37.03;;;;;;;;;;5108528;28;20611;-42
2021/03/25 08:27:15;;;;;;;51.23;39.97;;;;;;;;;;5107112;28;20601;-44
2021/03/25 08:29:48;;;;;;;47.87;40.17;;;;;;;;;;5107218;28;21248;-43
2021/03/25 08:32:20;;;;;;;48.00;38.30;;;;;;;;;;5105497;28;20638;-43
2021/03/25 08:35:05;;;;;;;50.43;41.00;;;;;;;;;;5089183;28;20783;-43
2021/03/25 08:37:47;;;;;;;53.17;39.63;;;;;;;;;;5107947;28;20655;-43
2021/03/25 08:40:30;;;;;;;48.13;40.83;;;;;;;;;;5106880;28;20620;-43
2021/03/25 08:42:57;;;;;;;44.40;37.23;;;;;;;;;;5107243;28;20643;-44
2021/03/25 08:45:22;;;;;;;49.47;38.07;;;;;;;;;;5108317;28;20659;-43
2021/03/25 08:47:52;;;;;;;50.23;37.73;;;;;;;;;;5107391;28;20598;-44
2021/03/25 08:50:20;;;;;;;55.93;38.90;;;;;;;;;;5106545;28;20188;-43
2021/03/25 08:52:46;;;;;;;48.10;37.70;;;;;;;;;;5107216;28;20735;-42
2021/03/25 08:55:25;;;;;;;46.33;38.30;;;;;;;;;;5107407;28;20734;-45
2021/03/25 08:57:52;;;;;;;50.53;38.53;;;;;;;;;;5107535;27;20184;-43
2021/03/25 09:00:29;;;;;;;53.20;39.20;;;;;;;;;;5106485;28;21217;-43
2021/03/25 09:03:03;;;;;;;46.90;37.70;;;;;;;;;;5105411;28;20595;-43
2021/03/25 09:05:31;;;;;;;44.70;37.30;;;;;;;;;;5106539;28;20693;-43
2021/03/25 09:07:59;;;;;;;45.23;35.50;;;;;;;;;;5105821;28;20606;-43
2021/03/25 09:10:41;;;;;;;48.80;37.40;;;;;;;;;;5106762;28;20700;-43
2021/03/25 09:13:10;;;;;;;47.13;36.90;;;;;;;;;;5107227;28;21442;-43
2021/03/25 09:15:35;;;;;;;50.33;40.30;;;;;;;;;;5107313;28;21132;-43
2021/03/25 09:18:05;;;;;;;45.17;37.30;;;;;;;;;;5106899;28;20598;-44
2021/03/25 09:20:32;;;;;;;47.83;37.87;;;;;;;;;;5107374;28;20195;-43
2021/03/25 09:22:58;;;;;;;43.20;35.90;;;;;;;;;;5107128;28;21014;-44
2021/03/25 09:25:26;;;;;;;43.53;36.23;;;;;;;;;;5098593;28;21170;-44
2021/03/25 09:27:51;;;;;;;46.60;36.33;;;;;;;;;;5106858;28;20991;-44
2021/03/25 09:30:37;;;;;;;52.25;38.50;;;;;;;;;;5107332;28;21074;-44
2021/03/25 09:33:21;;;;;;;47.30;38.77;;;;;;;;;;5107090;28;20189;-44
2021/03/25 09:35:46;;;;;;;45.67;35.70;;;;;;;;;;5107018;28;20610;-44
2021/03/25 09:38:23;;;;;;;45.13;34.47;;;;;;;;;;5099125;28;20596;-43
2021/03/25 09:40:50;;;;;;;37.43;31.70;;;;;;;;;;5107400;28;20217;-43
2021/03/25 09:43:24;;;;;;;37.43;31.20;;;;;;;;;;5106709;28;20961;-42
2021/03/25 09:45:49;;;;;;;42.90;33.03;;;;;;;;;;5107158;28;20611;-43
2021/03/25 09:48:25;;;;;;;37.40;30.90;;;;;;;;;;5107136;28;20607;-43
2021/03/25 09:51:06;;;;;;;37.20;30.63;;;;;;;;;;5106250;28;20174;-43
2021/03/25 09:53:43;;;;;;;38.70;29.80;;;;;;;;;;5107588;28;20637;-42
2021/03/25 09:56:30;;;;;;;39.70;30.73;;;;;;;;;;5106555;28;20664;-43
2021/03/25 09:58:56;;;;;;;32.90;26.73;;;;;;;;;;5088107;28;20994;-44
2021/03/25 10:01:40;;;;;;;33.80;28.30;;;;;;;;;;5106403;28;20596;-43
2021/03/25 10:04:24;;;;;;;34.23;26.90;;;;;;;;;;5106663;28;20593;-43
2021/03/25 10:06:51;;;;;;;31.20;24.70;;;;;;;;;;5103525;28;20607;-42
2021/03/25 10:09:17;;;;;;;31.80;24.20;;;;;;;;;;5106337;28;20750;-43
2021/03/25 10:11:48;;;;;;;33.30;26.93;;;;;;;;;;5107309;28;20682;-44
2021/03/25 10:14:31;;;;;;;33.30;25.13;;;;;;;;;;5106852;28;20194;-42
2021/03/25 10:16:57;;;;;;;32.23;25.30;;;;;;;;;;5102757;28;20614;-44
2021/03/25 10:19:41;;;;;;;32.07;26.67;;;;;;;;;;5106987;28;20690;-43
2021/03/25 10:22:15;;;;;;;29.87;23.90;;;;;;;;;;5110681;28;20170;-44
2021/03/25 10:24:43;;;;;;;29.27;23.37;;;;;;;;;;5104953;28;20982;-44
2021/03/25 10:27:14;;;;;;;31.27;23.60;;;;;;;;;;5110612;28;20654;-43
2021/03/25 10:29:39;;;;;;;32.93;24.40;;;;;;;;;;5108937;28;20588;-44
2021/03/25 10:32:11;;;;;;;29.20;24.40;;;;;;;;;;5110854;28;20596;-43
2021/03/25 10:34:38;;;;;;;35.50;23.53;;;;;;;;;;5110747;28;20232;-43
2021/03/25 10:37:22;;;;;;;27.87;21.57;;;;;;;;;;5109927;28;20601;-42
2021/03/25 10:39:48;;;;;;;32.20;24.10;;;;;;;;;;5110683;28;20594;-43
2021/03/25 10:42:19;;;;;;;28.90;22.67;;;;;;;;;;5110974;28;20607;-43
2021/03/25 10:44:44;;;;;;;33.07;23.40;;;;;;;;;;5110364;28;20289;-43
2021/03/25 10:47:19;;;;;;;31.23;24.07;;;;;;;;;;5109833;28;20695;-43
2021/03/25 10:49:46;;;;;;;30.10;24.30;;;;;;;;;;5106682;28;20180;-44
2021/03/25 10:52:35;;;;;;;29.97;23.77;;;;;;;;;;5104670;28;20649;-43
2021/03/25 10:55:19;;;;;;;28.60;22.50;;;;;;;;;;5095674;28;20675;-44
2021/03/25 10:57:50;;;;;;;23.53;19.57;;;;;;;;;;5108765;28;20612;-43
2021/03/25 11:00:20;;;;;;;24.97;19.37;;;;;;;;;;5109078;28;20713;-44
2021/03/25 11:02:45;;;;;;;32.30;23.77;;;;;;;;;;5109041;28;21910;-43
2021/03/25 11:05:11;;;;;;;28.30;22.17;;;;;;;;;;5109773;28;21413;-43
2021/03/25 11:07:40;;;;;;;30.03;21.90;;;;;;;;;;5108544;28;20266;-44
2021/03/25 11:10:14;;;;;;;29.50;22.60;;;;;;;;;;5106056;28;20662;-44
2021/03/25 11:12:40;;;;;;;25.57;20.97;;;;;;;;;;5109555;28;20716;-43
2021/03/25 11:15:19;;;;;;;23.43;20.53;;;;;;;;;;5109717;28;20785;-44
2021/03/25 11:17:44;;;;;;;25.47;20.40;;;;;;;;;;5109407;28;20178;-43
2021/03/25 11:20:17;;;;;;;27.47;21.70;;;;;;;;;;5109509;28;20663;-43
2021/03/25 11:22:43;;;;;;;29.97;22.87;;;;;;;;;;5109339;28;20250;-44
2021/03/25 11:25:13;;;;;;;26.10;20.90;;;;;;;;;;5109928;28;21014;-44
2021/03/25 11:27:38;;;;;;;30.20;20.77;;;;;;;;;;5109345;28;20188;-44
2021/03/25 11:30:03;;;;;;;29.00;21.17;;;;;;;;;;5109038;28;21063;-43
2021/03/25 11:32:36;;;;;;;24.60;19.37;;;;;;;;;;5109198;28;20559;-44
2021/03/25 11:35:19;;;;;;;25.23;18.73;;;;;;;;;;5108690;27;20193;-44
2021/03/25 11:37:44;;;;;;;30.93;21.90;;;;;;;;;;5109552;28;20601;-44
2021/03/25 11:40:14;;;;;;;28.77;20.07;;;;;;;;;;5109648;28;20634;-43
2021/03/25 11:42:40;;;;;;;28.53;21.00;;;;;;;;;;5109544;28;20183;-44
2021/03/25 11:45:06;;;;;;;25.43;21.10;;;;;;;;;;5109320;28;20702;-44
2021/03/25 11:47:41;;;;;;;28.80;19.80;;;;;;;;;;5109099;28;20607;-43
2021/03/25 11:50:26;;;;;;;26.53;20.77;;;;;;;;;;5109374;28;20606;-44
2021/03/25 11:52:56;;;;;;;22.53;17.80;;;;;;;;;;5108758;28;20646;-44
2021/03/25 11:55:27;;;;;;;25.43;20.00;;;;;;;;;;5109203;28;20645;-43
2021/03/25 11:57:54;;;;;;;25.90;18.70;;;;;;;;;;5102669;28;21197;-43
2021/03/25 12:00:21;;;;;;;23.33;17.77;;;;;;;;;;5109091;28;20702;-43
2021/03/25 12:02:47;;;;;;;26.00;18.10;;;;;;;;;;5109455;28;20706;-43
2021/03/25 12:05:19;;;;;;;20.17;16.80;;;;;;;;;;5109280;28;20708;-43
2021/03/25 12:07:44;;;;;;;20.27;18.07;;;;;;;;;;5106189;28;20188;-42
2021/03/25 12:10:12;;;;;;;23.20;19.05;;;;;;;;;;5108894;28;20600;-42
2021/03/25 12:12:37;;;;;;;22.13;17.63;;;;;;;;;;5108997;28;20204;-43
2021/03/25 12:15:03;;;;;;;24.73;18.42;;;;;;;;;;5108461;28;20595;-42
2021/03/25 12:17:28;;;;;;;23.47;18.80;;;;;;;;;;5108526;27;20215;-43
2021/03/25 12:19:53;;;;;;;20.73;17.83;;;;;;;;;;5107705;28;20188;-44
2021/03/25 12:22:28;;;;;;;24.33;19.30;;;;;;;;;;5100806;28;20630;-44
2021/03/25 12:24:54;;;;;;;24.40;18.10;;;;;;;;;;5107747;28;20176;-43
2021/03/25 12:27:20;;;;;;;22.37;17.20;;;;;;;;;;5108009;28;20614;-44
2021/03/25 12:29:46;;;;;;;19.77;16.83;;;;;;;;;;5108274;28;20714;-42
2021/03/25 12:32:12;;;;;;;21.07;15.83;;;;;;;;;;5107705;28;20699;-43
2021/03/25 12:34:37;;;;;;;18.20;15.37;;;;;;;;;;5108133;28;20176;-44
2021/03/25 12:37:02;;;;;;;21.40;16.73;;;;;;;;;;5107333;28;20591;-44
2021/03/25 12:39:27;;;;;;;21.37;17.27;;;;;;;;;;5108414;28;20209;-43
2021/03/25 12:41:53;;;;;;;19.77;17.13;;;;;;;;;;5108540;28;20183;-43
2021/03/25 12:44:18;;;;;;;21.50;16.77;;;;;;;;;;5108274;28;20199;-43
2021/03/25 12:46:43;;;;;;;19.53;16.33;;;;;;;;;;5108713;28;20166;-43
2021/03/25 12:49:09;;;;;;;20.87;15.90;;;;;;;;;;5107867;28;20163;-44
2021/03/25 12:51:34;;;;;;;22.70;16.17;;;;;;;;;;5108745;28;20165;-44
2021/03/25 12:53:59;;;;;;;18.83;15.27;;;;;;;;;;5107630;28;20211;-44
2021/03/25 12:56:26;;;;;;;17.83;14.63;;;;;;;;;;5106813;28;20252;-43
2021/03/25 12:58:52;;;;;;;18.47;14.80;;;;;;;;;;5107922;28;20174;-45
2021/03/25 13:01:19;;;;;;;18.90;15.20;;;;;;;;;;5107985;28;20600;-43
2021/03/25 13:03:45;;;;;;;20.57;15.83;;;;;;;;;;5108543;28;20599;-43
2021/03/25 13:06:11;;;;;;;22.10;16.00;;;;;;;;;;5106921;28;20707;-43
2021/03/25 13:08:36;;;;;;;17.73;13.70;;;;;;;;;;5107813;28;20504;-42
2021/03/25 13:11:01;;;;;;;18.20;14.27;;;;;;;;;;5107535;28;20910;-43
2021/03/25 13:13:27;;;;;;;18.20;13.67;;;;;;;;;;5107038;28;20198;-44
2021/03/25 13:15:52;;;;;;;18.97;14.47;;;;;;;;;;5108030;28;20163;-44
2021/03/25 13:18:17;;;;;;;20.23;15.97;;;;;;;;;;5107712;28;20171;-44
2021/03/25 13:20:43;;;;;;;18.67;14.73;;;;;;;;;;5108049;28;20198;-43
2021/03/25 13:23:08;;;;;;;17.37;13.83;;;;;;;;;;5107887;28;20205;-43
2021/03/25 13:25:35;;;;;;;15.67;13.47;;;;;;;;;;5108105;28;20507;-44
2021/03/25 13:28:00;;;;;;;18.50;15.00;;;;;;;;;;5107405;28;20162;-43
2021/03/25 13:30:26;;;;;;;16.50;13.80;;;;;;;;;;5107538;28;21156;-44
2021/03/25 13:32:51;;;;;;;15.37;12.83;;;;;;;;;;5108258;28;20192;-43
2021/03/25 13:35:17;;;;;;;16.47;13.40;;;;;;;;;;5107296;28;20178;-43
2021/03/25 13:37:43;;;;;;;14.80;11.83;;;;;;;;;;5099541;28;20185;-44
2021/03/25 13:40:09;;;;;;;13.80;11.57;;;;;;;;;;5107829;28;20199;-43
2021/03/25 13:42:34;;;;;;;14.83;11.50;;;;;;;;;;5107250;28;20212;-43
2021/03/25 13:44:59;;;;;;;19.40;13.10;;;;;;;;;;5107695;28;20699;-43
2021/03/25 13:47:24;;;;;;;17.77;13.63;;;;;;;;;;5102262;28;20180;-45
2021/03/25 13:49:50;;;;;;;16.23;13.20;;;;;;;;;;5107945;28;20547;-42
2021/03/25 13:52:15;;;;;;;14.65;13.02;;;;;;;;;;5107647;28;20239;-43
2021/03/25 13:54:40;;;;;;;17.00;12.70;;;;;;;;;;5107004;28;20231;-42
2021/03/25 13:57:06;;;;;;;13.50;11.83;;;;;;;;;;5111542;28;20176;-43
2021/03/25 13:59:31;;;;;;;17.57;12.80;;;;;;;;;;5111171;28;20301;-42
2021/03/25 14:01:56;;;;;;;14.30;11.50;;;;;;;;;;5110855;28;20648;-42
2021/03/25 14:04:21;;;;;;;18.10;13.57;;;;;;;;;;5112105;28;20518;-42
2021/03/25 14:06:47;;;;;;;16.83;13.60;;;;;;;;;;5111032;28;20713;-43
2021/03/25 14:09:12;;;;;;;20.45;14.73;;;;;;;;;;5110496;28;20170;-43
2021/03/25 14:11:37;;;;;;;19.00;13.90;;;;;;;;;;5111364;28;20176;-43
2021/03/25 14:14:04;;;;;;;21.03;13.77;;;;;;;;;;5110852;28;20195;-44
2021/03/25 14:16:29;;;;;;;14.20;12.00;;;;;;;;;;5110992;28;20168;-44
2021/03/25 14:18:55;;;;;;;17.40;13.80;;;;;;;;;;5110914;28;20586;-44
2021/03/25 14:21:20;;;;;;;16.50;13.87;;;;;;;;;;5111691;28;20172;-44
2021/03/25 14:23:46;;;;;;;17.40;13.07;;;;;;;;;;5108813;28;20256;-44
2021/03/25 14:26:11;;;;;;;15.83;13.13;;;;;;;;;;5107303;28;20183;-44
2021/03/25 14:28:36;;;;;;;17.70;13.90;;;;;;;;;;5100452;28;20178;-45
2021/03/25 14:31:02;;;;;;;19.67;14.50;;;;;;;;;;5105228;28;20623;-46